createdAt,value
2019-06-10T00:00:41.441Z,97158.39
2019-06-10T00:05:44.584Z,97140.19
2019-06-10T00:10:48.011Z,97139.38
2019-06-10T00:15:51.656Z,97133.70
2019-06-10T00:20:55.135Z,97132.20
2019-06-10T00:26:01.286Z,97128.43
2019-06-10T00:31:05.314Z,97116.39
2019-06-10T00:36:13.257Z,97103.54
2019-06-10T00:41:14.343Z,97109.75
2019-06-10T00:46:17.913Z,97108.82
2019-06-10T00:51:21.681Z,97107.88
2019-06-10T00:56:25.107Z,97093.33
2019-06-10T01:01:31.105Z,97084.11
2019-06-10T01:06:33.660Z,97072.04
2019-06-10T01:11:37.097Z,97072.04
2019-06-10T01:16:41.126Z,97064.29
2019-06-10T01:21:44.777Z,97046.16
2019-06-10T01:26:50.444Z,97048.12
2019-06-10T01:31:53.293Z,97048.02
2019-06-10T01:36:56.696Z,97050.05
2019-06-10T01:42:00.611Z,97051.97
2019-06-10T01:47:04.269Z,97042.27
2019-06-10T01:52:07.677Z,97048.80
2019-06-10T01:57:13.814Z,97048.80
2019-06-10T02:02:23.801Z,97033.78
2019-06-10T02:07:26.284Z,97027.32
2019-06-10T02:12:31.477Z,97036.44
2019-06-10T02:17:35.020Z,97045.63
2019-06-10T02:22:40.945Z,97017.67
2019-06-10T02:27:43.869Z,97011.29
2019-06-10T02:32:47.491Z,97019.85
2019-06-10T02:37:53.730Z,97037.78
2019-06-10T02:42:57.779Z,97035.78
2019-06-10T02:48:04.122Z,97052.74
2019-06-10T02:53:06.527Z,97060.42
2019-06-10T02:58:13.634Z,97152.03
2019-06-10T03:03:25.688Z,97169.33
2019-06-10T03:08:26.006Z,97166.25
2019-06-10T03:13:25.860Z,97147.30
2019-06-10T03:18:29.533Z,97130.05
2019-06-10T03:23:33.273Z,97106.42
2019-06-10T03:28:36.684Z,97063.58
2019-06-10T03:33:43.092Z,97028.34
2019-06-10T03:38:45.231Z,97002.41
2019-06-10T03:43:48.609Z,96941.50
2019-06-10T03:48:52.640Z,96875.80
2019-06-10T03:53:56.242Z,96893.23
2019-06-10T03:58:59.673Z,96948.09
2019-06-10T04:04:03.070Z,96935.44
2019-06-10T04:09:06.986Z,97049.34
2019-06-10T04:14:12.808Z,97031.83
2019-06-10T04:19:15.818Z,97038.91
2019-06-10T04:24:20.298Z,97003.29
2019-06-10T04:29:26.156Z,97005.13
2019-06-10T04:34:32.759Z,96981.44
2019-06-10T04:39:34.925Z,96944.30
2019-06-10T04:44:38.294Z,96972.83
2019-06-10T04:49:42.860Z,96983.06
2019-06-10T04:54:46.437Z,96984.80
2019-06-10T04:59:49.839Z,96986.09
2019-06-10T05:04:53.336Z,97005.78
2019-06-10T05:09:56.954Z,97004.49
2019-06-10T05:15:00.411Z,97009.95
2019-06-10T05:20:06.074Z,96987.46
2019-06-10T05:25:09.836Z,96961.18
2019-06-10T05:30:13.974Z,96967.91
2019-06-10T05:35:17.438Z,96971.19
2019-06-10T05:40:23.120Z,96983.25
2019-06-10T05:45:27.572Z,96979.27
2019-06-10T05:50:33.587Z,96986.73
2019-06-10T05:55:36.906Z,96996.91
2019-06-10T06:00:42.729Z,96987.53
2019-06-10T06:05:45.670Z,96973.42
2019-06-10T06:10:49.071Z,97009.69
2019-06-10T06:15:52.881Z,97030.34
2019-06-10T06:20:56.630Z,97052.63
2019-06-10T06:26:00.030Z,97081.84
2019-06-10T06:31:03.788Z,97087.07
2019-06-10T06:36:07.417Z,97077.13
2019-06-10T06:41:13.433Z,97086.46
2019-06-10T06:46:16.018Z,97072.81
2019-06-10T06:51:35.489Z,97036.00
2019-06-10T06:56:24.760Z,97050.29
2019-06-10T07:01:29.675Z,97006.86
2019-06-10T07:06:34.555Z,97021.66
2019-06-10T07:11:41.264Z,97054.95
2019-06-10T07:16:46.607Z,97047.30
2019-06-10T07:22:07.468Z,97036.55
2019-06-10T07:26:55.353Z,97070.75
2019-06-10T07:31:58.736Z,97028.84
2019-06-10T07:37:02.662Z,97023.75
2019-06-10T07:42:06.034Z,97013.61
2019-06-10T07:47:09.430Z,96999.84
2019-06-10T07:52:19.388Z,96986.31
2019-06-10T07:57:18.177Z,96983.98
2019-06-10T08:02:23.103Z,96983.98
2019-06-10T08:07:26.680Z,96968.67
2019-06-10T08:12:32.407Z,96967.09
2019-06-10T08:17:35.730Z,96952.82
2019-06-10T08:22:44.307Z,96957.09
2019-06-10T08:27:47.388Z,96939.11
2019-06-10T08:32:53.419Z,96978.45
2019-06-10T08:37:54.517Z,96964.68
2019-06-10T08:42:57.930Z,96964.22
2019-06-10T08:48:02.728Z,96952.92
2019-06-10T08:53:14.369Z,96938.00
2019-06-10T08:58:12.876Z,96983.59
2019-06-10T09:03:16.453Z,96990.86
2019-06-10T09:08:20.418Z,97005.73
2019-06-10T09:13:24.048Z,96977.16
2019-06-10T09:18:27.461Z,96975.06
2019-06-10T09:23:33.048Z,96959.02
2019-06-10T09:28:36.237Z,96952.52
2019-06-10T09:33:42.453Z,96958.06
2019-06-10T09:38:47.310Z,96940.59
2019-06-10T09:43:55.759Z,96945.73
2019-06-10T09:48:57.822Z,96951.09
2019-06-10T09:54:06.086Z,96964.77
2019-06-10T09:59:09.587Z,96952.87
2019-06-10T10:04:12.983Z,96940.91
2019-06-10T10:09:16.377Z,96923.16
2019-06-10T10:14:19.798Z,96919.25
2019-06-10T10:19:23.257Z,96916.90
2019-06-10T10:24:26.897Z,96913.38
2019-06-10T10:29:32.713Z,96910.31
2019-06-10T10:34:35.429Z,96895.62
2019-06-10T10:39:39.057Z,96892.48
2019-06-10T10:44:46.208Z,96887.61
2019-06-10T10:49:47.563Z,96884.88
2019-06-10T10:54:51.894Z,96874.33
2019-06-10T10:59:56.373Z,96877.77
2019-06-10T11:04:59.779Z,96876.77
2019-06-10T11:10:04.914Z,96867.17
2019-06-10T11:15:08.761Z,96850.29
2019-06-10T11:20:13.596Z,96840.53
2019-06-10T11:25:17.366Z,96841.42
2019-06-10T11:30:20.926Z,96840.95
2019-06-10T11:35:24.436Z,96830.02
2019-06-10T11:40:27.997Z,96832.53
2019-06-10T11:45:32.832Z,96830.30
2019-06-10T11:50:36.387Z,96806.79
2019-06-10T11:55:42.247Z,96790.86
2019-06-10T12:00:45.197Z,96790.42
2019-06-10T12:05:49.123Z,96771.88
2019-06-10T12:10:57.337Z,96758.47
2019-06-10T12:21:03.667Z,96735.58
2019-06-10T12:26:07.774Z,96729.98
2019-06-10T12:31:13.510Z,96719.41
2019-06-10T12:36:16.302Z,96703.48
2019-06-10T12:41:19.708Z,96688.30
2019-06-10T12:46:23.425Z,96683.19
2019-06-10T12:51:27.095Z,96675.14
2019-06-10T12:56:32.817Z,96669.27
2019-06-10T13:01:35.904Z,96671.17
2019-06-10T13:06:40.335Z,96662.62
2019-06-10T13:11:43.726Z,96651.28
2019-06-10T13:16:47.146Z,96650.11
2019-06-10T13:21:52.793Z,96650.70
2019-06-10T13:26:56.544Z,96637.39
2019-06-10T13:32:02.804Z,96631.34
2019-06-10T13:37:06.972Z,96631.25
2019-06-10T13:42:13.307Z,96629.82
2019-06-10T13:47:15.872Z,96619.91
2019-06-10T13:52:19.280Z,96603.45
2019-06-10T13:57:23.113Z,96588.19
2019-06-10T14:02:26.500Z,96571.55
2019-06-10T14:07:29.893Z,96553.94
2019-06-10T14:12:33.372Z,96550.73
2019-06-10T14:17:36.861Z,96543.08
2019-06-10T14:22:42.417Z,96525.05
2019-06-10T14:27:45.408Z,96528.06
2019-06-10T14:32:49.140Z,96514.92
2019-06-10T14:37:53.431Z,96492.84
2019-06-10T14:42:57.010Z,96484.85
2019-06-10T14:48:02.744Z,96484.61
2019-06-10T14:53:06.893Z,96471.58
2019-06-10T14:58:13.809Z,96465.77
2019-06-10T15:03:19.686Z,96477.03
2019-06-10T15:08:23.123Z,96507.22
2019-06-10T15:13:26.278Z,96516.41
2019-06-10T15:18:32.805Z,96510.50
2019-06-10T15:23:35.125Z,96552.90
2019-06-10T15:28:38.865Z,96561.59
2019-06-10T15:33:43.137Z,96576.20
2019-06-10T15:38:46.601Z,96586.50
2019-06-10T15:43:52.890Z,96589.40
2019-06-10T15:48:55.458Z,96600.03
2019-06-10T15:53:58.944Z,96593.31
2019-06-10T15:59:02.930Z,96580.44
2019-06-10T16:04:06.490Z,96558.45
2019-06-10T16:09:12.150Z,96572.20
2019-06-10T16:14:15.118Z,96612.11
2019-06-10T16:19:19.650Z,96610.38
2019-06-10T16:24:26.891Z,96629.19
2019-06-10T16:29:28.740Z,96654.09
2019-06-10T16:34:32.648Z,96646.21
2019-06-10T16:39:36.048Z,96707.07
2019-06-10T16:44:39.445Z,96759.94
2019-06-10T16:49:42.971Z,96725.94
2019-06-10T16:54:46.418Z,96643.12
2019-06-10T16:59:51.968Z,96517.53
2019-06-10T17:04:58.276Z,96541.45
2019-06-10T17:10:02.388Z,96598.03
2019-06-10T17:15:13.002Z,96580.53
2019-06-10T17:20:16.669Z,96595.34
2019-06-10T17:25:23.547Z,96593.03
2019-06-10T17:30:27.199Z,96600.86
2019-06-10T17:35:36.426Z,96608.73
2019-06-10T17:40:36.438Z,96609.22
2019-06-10T17:45:42.085Z,96620.50
2019-06-10T17:50:45.221Z,96658.70
2019-06-10T17:55:48.734Z,96654.21
2019-06-10T18:00:53.079Z,96648.88
2019-06-10T18:05:56.822Z,96644.09
2019-06-10T18:11:00.236Z,96636.09
2019-06-10T18:16:03.647Z,96634.57
2019-06-10T18:21:07.087Z,96626.70
2019-06-10T18:26:12.385Z,96619.27
2019-06-10T18:31:18.531Z,96622.86
2019-06-10T18:36:24.168Z,96629.95
2019-06-10T18:41:26.314Z,96610.69
2019-06-10T18:46:32.666Z,96630.73
2019-06-10T18:51:37.244Z,96638.13
2019-06-10T18:56:40.182Z,96640.13
2019-06-10T19:01:43.828Z,96639.15
2019-06-10T19:06:47.226Z,96620.16
2019-06-10T19:11:50.622Z,96626.31
2019-06-10T19:16:54.051Z,96621.80
2019-06-10T19:22:05.562Z,96609.77
2019-06-10T19:27:05.354Z,96616.13
2019-06-10T19:32:08.036Z,96638.47
2019-06-10T19:37:12.888Z,96650.70
2019-06-10T19:42:16.378Z,96640.41
2019-06-10T19:47:20.014Z,96648.22
2019-06-10T19:52:23.605Z,96653.75
2019-06-10T19:57:27.016Z,96649.86
2019-06-10T20:02:32.622Z,96636.55
2019-06-10T20:07:35.855Z,96618.86
2019-06-10T20:12:40.372Z,96613.53
2019-06-10T20:17:44.460Z,96592.64
2019-06-10T20:22:48.194Z,96576.36
2019-06-10T20:27:52.332Z,96573.42
2019-06-10T20:32:56.563Z,96554.73
2019-06-10T20:38:04.656Z,96555.81
2019-06-10T20:43:05.257Z,96553.32
2019-06-10T20:48:08.680Z,96553.43
2019-06-10T20:53:18.264Z,96534.67
2019-06-10T20:58:17.291Z,96524.68
2019-06-10T21:03:22.740Z,96513.09
2019-06-10T21:08:29.622Z,96518.20
2019-06-10T21:13:33.358Z,96514.55
2019-06-10T21:18:36.719Z,96521.84
2019-06-10T21:23:42.824Z,96550.12
2019-06-10T21:28:48.687Z,96549.22
2019-06-10T21:33:55.367Z,96566.41
2019-06-10T21:38:56.431Z,96559.22
2019-06-10T21:44:02.761Z,96567.12
2019-06-10T21:49:05.387Z,96570.91
2019-06-10T21:54:08.810Z,96567.41
2019-06-10T21:59:12.674Z,96575.57
2019-06-10T22:04:16.122Z,96585.22
2019-06-10T22:09:19.510Z,96581.78
2019-06-10T22:14:23.906Z,96573.23
2019-06-10T22:19:27.306Z,96576.72
2019-06-10T22:24:30.701Z,96576.18
2019-06-10T22:29:34.124Z,96584.00
2019-06-10T22:34:37.809Z,96595.67
2019-06-10T22:39:42.086Z,96606.75
2019-06-10T22:44:45.805Z,96635.23
2019-06-10T22:49:49.960Z,96640.94
2019-06-10T22:54:55.140Z,96641.11
2019-06-10T22:59:59.426Z,96641.90
2019-06-10T23:05:05.448Z,96625.96
2019-06-10T23:10:12.231Z,96628.24
2019-06-10T23:15:15.550Z,96619.72
2019-06-10T23:20:18.990Z,96593.34
2019-06-10T23:25:22.418Z,96581.44
2019-06-10T23:30:25.822Z,96573.68
2019-06-10T23:35:29.228Z,96562.84
2019-06-10T23:40:32.631Z,96551.89
2019-06-10T23:45:36.062Z,96567.32
2019-06-10T23:50:39.761Z,96565.61
2019-06-10T23:55:43.487Z,96581.98
